sensor_id;sensor_type;location;lat;lon;timestamp;P1;durP1;ratioP1;P2;durP2;ratioP2
7503;SDS011;3793;48.136;11.536;2023-04-03T00:00:45;9.97;;;8.60;;
7503;SDS011;3793;48.136;11.536;2023-04-03T00:03:13;13.30;;;8.97;;
7503;SDS011;3793;48.136;11.536;2023-04-03T00:05:41;9.80;;;8.43;;
7503;SDS011;3793;48.136;11.536;2023-04-03T00:08:07;12.23;;;9.13;;
7503;SDS011;3793;48.136;11.536;2023-04-03T00:10:35;11.23;;;8.20;;
7503;SDS011;3793;48.136;11.536;2023-04-03T00:13:01;10.17;;;8.13;;
7503;SDS011;3793;48.136;11.536;2023-04-03T00:15:28;10.30;;;8.47;;
7503;SDS011;3793;48.136;11.536;2023-04-03T00:17:55;12.93;;;9.03;;
7503;SDS011;3793;48.136;11.536;2023-04-03T00:20:22;14.27;;;8.67;;
7503;SDS011;3793;48.136;11.536;2023-04-03T00:22:51;12.97;;;8.90;;
7503;SDS011;3793;48.136;11.536;2023-04-03T00:25:18;11.63;;;7.97;;
7503;SDS011;3793;48.136;11.536;2023-04-03T00:27:45;11.80;;;8.40;;
7503;SDS011;3793;48.136;11.536;2023-04-03T00:30:13;8.67;;;7.47;;
7503;SDS011;3793;48.136;11.536;2023-04-03T00:32:40;11.40;;;8.10;;
7503;SDS011;3793;48.136;11.536;2023-04-03T00:35:07;10.83;;;9.03;;
7503;SDS011;3793;48.136;11.536;2023-04-03T00:37:33;11.43;;;8.03;;
7503;SDS011;3793;48.136;11.536;2023-04-03T00:40:02;11.73;;;7.50;;
7503;SDS011;3793;48.136;11.536;2023-04-03T00:42:29;13.60;;;8.40;;
7503;SDS011;3793;48.136;11.536;2023-04-03T00:47:41;9.10;;;6.77;;
7503;SDS011;3793;48.136;11.536;2023-04-03T00:50:08;10.53;;;7.67;;
7503;SDS011;3793;48.136;11.536;2023-04-03T00:52:35;10.23;;;8.20;;
7503;SDS011;3793;48.136;11.536;2023-04-03T00:55:05;11.03;;;7.90;;
7503;SDS011;3793;48.136;11.536;2023-04-03T00:57:33;9.43;;;7.43;;
7503;SDS011;3793;48.136;11.536;2023-04-03T01:00:00;11.20;;;7.73;;
7503;SDS011;3793;48.136;11.536;2023-04-03T01:02:28;8.00;;;6.83;;
7503;SDS011;3793;48.136;11.536;2023-04-03T01:04:54;8.73;;;7.63;;
7503;SDS011;3793;48.136;11.536;2023-04-03T01:07:21;9.30;;;7.07;;
7503;SDS011;3793;48.136;11.536;2023-04-03T01:09:56;9.77;;;7.70;;
7503;SDS011;3793;48.136;11.536;2023-04-03T01:12:25;10.37;;;7.20;;
7503;SDS011;3793;48.136;11.536;2023-04-03T01:14:52;9.63;;;7.10;;
7503;SDS011;3793;48.136;11.536;2023-04-03T01:17:29;9.60;;;7.73;;
7503;SDS011;3793;48.136;11.536;2023-04-03T01:20:00;10.63;;;7.50;;
7503;SDS011;3793;48.136;11.536;2023-04-03T01:22:28;8.83;;;7.53;;
7503;SDS011;3793;48.136;11.536;2023-04-03T01:24:57;9.93;;;7.53;;
7503;SDS011;3793;48.136;11.536;2023-04-03T01:27:25;11.17;;;7.87;;
7503;SDS011;3793;48.136;11.536;2023-04-03T01:29:53;11.27;;;6.93;;
7503;SDS011;3793;48.136;11.536;2023-04-03T01:32:22;10.67;;;7.37;;
7503;SDS011;3793;48.136;11.536;2023-04-03T01:34:48;8.63;;;7.40;;
7503;SDS011;3793;48.136;11.536;2023-04-03T01:37:15;10.33;;;7.20;;
7503;SDS011;3793;48.136;11.536;2023-04-03T01:39:41;9.53;;;7.57;;
7503;SDS011;3793;48.136;11.536;2023-04-03T01:42:08;9.73;;;7.50;;
7503;SDS011;3793;48.136;11.536;2023-04-03T01:44:35;9.13;;;7.43;;
7503;SDS011;3793;48.136;11.536;2023-04-03T01:47:01;10.30;;;7.53;;
7503;SDS011;3793;48.136;11.536;2023-04-03T01:49:29;9.77;;;7.73;;
7503;SDS011;3793;48.136;11.536;2023-04-03T01:51:56;9.93;;;7.10;;
7503;SDS011;3793;48.136;11.536;2023-04-03T01:54:23;9.77;;;7.33;;
7503;SDS011;3793;48.136;11.536;2023-04-03T01:56:49;10.73;;;7.57;;
7503;SDS011;3793;48.136;11.536;2023-04-03T01:59:16;11.70;;;7.20;;
7503;SDS011;3793;48.136;11.536;2023-04-03T02:01:44;7.70;;;6.67;;
7503;SDS011;3793;48.136;11.536;2023-04-03T02:04:11;9.77;;;6.53;;
7503;SDS011;3793;48.136;11.536;2023-04-03T02:06:39;9.93;;;7.30;;
7503;SDS011;3793;48.136;11.536;2023-04-03T02:09:06;10.60;;;6.17;;
7503;SDS011;3793;48.136;11.536;2023-04-03T02:11:32;7.37;;;6.30;;
7503;SDS011;3793;48.136;11.536;2023-04-03T02:13:59;8.07;;;6.40;;
7503;SDS011;3793;48.136;11.536;2023-04-03T02:16:25;11.37;;;6.83;;
7503;SDS011;3793;48.136;11.536;2023-04-03T02:18:53;8.90;;;6.80;;
7503;SDS011;3793;48.136;11.536;2023-04-03T02:21:20;7.60;;;6.80;;
7503;SDS011;3793;48.136;11.536;2023-04-03T02:23:48;9.10;;;6.67;;
7503;SDS011;3793;48.136;11.536;2023-04-03T02:26:15;7.40;;;6.10;;
7503;SDS011;3793;48.136;11.536;2023-04-03T02:28:42;8.67;;;6.97;;
7503;SDS011;3793;48.136;11.536;2023-04-03T02:31:09;9.97;;;6.90;;
7503;SDS011;3793;48.136;11.536;2023-04-03T02:33:36;10.17;;;5.83;;
7503;SDS011;3793;48.136;11.536;2023-04-03T02:36:03;9.00;;;6.10;;
7503;SDS011;3793;48.136;11.536;2023-04-03T02:38:30;7.53;;;5.73;;
7503;SDS011;3793;48.136;11.536;2023-04-03T02:41:00;10.23;;;6.20;;
7503;SDS011;3793;48.136;11.536;2023-04-03T02:43:27;7.20;;;5.33;;
7503;SDS011;3793;48.136;11.536;2023-04-03T02:45:54;5.93;;;5.33;;
7503;SDS011;3793;48.136;11.536;2023-04-03T02:48:21;7.47;;;5.97;;
7503;SDS011;3793;48.136;11.536;2023-04-03T02:50:48;6.70;;;5.23;;
7503;SDS011;3793;48.136;11.536;2023-04-03T02:53:14;6.57;;;5.40;;
7503;SDS011;3793;48.136;11.536;2023-04-03T02:55:41;8.13;;;5.83;;
7503;SDS011;3793;48.136;11.536;2023-04-03T02:58:09;7.73;;;5.40;;
7503;SDS011;3793;48.136;11.536;2023-04-03T03:00:36;8.57;;;5.40;;
7503;SDS011;3793;48.136;11.536;2023-04-03T03:03:02;6.50;;;5.03;;
7503;SDS011;3793;48.136;11.536;2023-04-03T03:05:29;8.73;;;5.20;;
7503;SDS011;3793;48.136;11.536;2023-04-03T03:07:56;8.47;;;5.03;;
7503;SDS011;3793;48.136;11.536;2023-04-03T03:10:22;6.53;;;5.53;;
7503;SDS011;3793;48.136;11.536;2023-04-03T03:12:49;4.63;;;4.23;;
7503;SDS011;3793;48.136;11.536;2023-04-03T03:15:17;8.13;;;5.23;;
7503;SDS011;3793;48.136;11.536;2023-04-03T03:17:44;6.07;;;5.23;;
7503;SDS011;3793;48.136;11.536;2023-04-03T03:20:11;6.60;;;4.97;;
7503;SDS011;3793;48.136;11.536;2023-04-03T03:22:39;7.73;;;5.20;;
7503;SDS011;3793;48.136;11.536;2023-04-03T03:25:05;5.87;;;5.27;;
7503;SDS011;3793;48.136;11.536;2023-04-03T03:27:32;5.37;;;4.87;;
7503;SDS011;3793;48.136;11.536;2023-04-03T03:29:59;7.10;;;5.03;;
7503;SDS011;3793;48.136;11.536;2023-04-03T03:32:27;7.73;;;4.70;;
7503;SDS011;3793;48.136;11.536;2023-04-03T03:34:54;5.33;;;4.33;;
7503;SDS011;3793;48.136;11.536;2023-04-03T03:37:21;6.80;;;4.20;;
7503;SDS011;3793;48.136;11.536;2023-04-03T03:39:47;6.07;;;4.77;;
7503;SDS011;3793;48.136;11.536;2023-04-03T03:42:14;5.00;;;3.70;;
7503;SDS011;3793;48.136;11.536;2023-04-03T03:44:40;6.10;;;4.10;;
7503;SDS011;3793;48.136;11.536;2023-04-03T03:47:07;5.40;;;4.30;;
7503;SDS011;3793;48.136;11.536;2023-04-03T03:49:37;4.43;;;3.60;;
7503;SDS011;3793;48.136;11.536;2023-04-03T03:52:05;6.43;;;3.53;;
7503;SDS011;3793;48.136;11.536;2023-04-03T03:54:32;5.80;;;4.23;;
7503;SDS011;3793;48.136;11.536;2023-04-03T03:57:01;5.23;;;4.10;;
7503;SDS011;3793;48.136;11.536;2023-04-03T03:59:29;3.57;;;3.27;;
7503;SDS011;3793;48.136;11.536;2023-04-03T04:01:55;4.83;;;4.10;;
7503;SDS011;3793;48.136;11.536;2023-04-03T04:04:25;5.40;;;3.77;;
7503;SDS011;3793;48.136;11.536;2023-04-03T04:06:54;4.20;;;3.57;;
7503;SDS011;3793;48.136;11.536;2023-04-03T04:09:24;4.27;;;3.70;;
7503;SDS011;3793;48.136;11.536;2023-04-03T04:11:55;4.10;;;3.47;;
7503;SDS011;3793;48.136;11.536;2023-04-03T04:14:33;3.93;;;3.53;;
7503;SDS011;3793;48.136;11.536;2023-04-03T04:17:05;4.60;;;3.90;;
7503;SDS011;3793;48.136;11.536;2023-04-03T04:19:35;5.83;;;3.47;;
7503;SDS011;3793;48.136;11.536;2023-04-03T04:22:07;4.33;;;3.93;;
7503;SDS011;3793;48.136;11.536;2023-04-03T04:24:40;7.10;;;4.37;;
7503;SDS011;3793;48.136;11.536;2023-04-03T04:27:12;6.13;;;4.10;;
7503;SDS011;3793;48.136;11.536;2023-04-03T04:29:42;6.97;;;4.40;;
7503;SDS011;3793;48.136;11.536;2023-04-03T04:32:14;4.27;;;3.27;;
7503;SDS011;3793;48.136;11.536;2023-04-03T04:34:44;5.90;;;3.80;;
7503;SDS011;3793;48.136;11.536;2023-04-03T04:40:05;4.07;;;3.67;;
7503;SDS011;3793;48.136;11.536;2023-04-03T04:42:39;5.03;;;3.60;;
7503;SDS011;3793;48.136;11.536;2023-04-03T04:53:14;5.33;;;4.17;;
7503;SDS011;3793;48.136;11.536;2023-04-03T04:55:48;4.90;;;4.03;;
7503;SDS011;3793;48.136;11.536;2023-04-03T04:58:15;7.00;;;4.03;;
7503;SDS011;3793;48.136;11.536;2023-04-03T05:00:45;4.57;;;3.47;;
7503;SDS011;3793;48.136;11.536;2023-04-03T05:03:22;4.63;;;3.73;;
7503;SDS011;3793;48.136;11.536;2023-04-03T05:05:58;4.90;;;3.80;;
7503;SDS011;3793;48.136;11.536;2023-04-03T05:08:37;4.57;;;3.70;;
7503;SDS011;3793;48.136;11.536;2023-04-03T05:11:19;4.13;;;3.73;;
7503;SDS011;3793;48.136;11.536;2023-04-03T05:13:55;5.37;;;4.03;;
7503;SDS011;3793;48.136;11.536;2023-04-03T05:16:29;4.50;;;3.73;;
7503;SDS011;3793;48.136;11.536;2023-04-03T05:19:07;4.93;;;4.23;;
7503;SDS011;3793;48.136;11.536;2023-04-03T05:21:47;6.03;;;4.13;;
7503;SDS011;3793;48.136;11.536;2023-04-03T05:24:29;4.90;;;3.87;;
7503;SDS011;3793;48.136;11.536;2023-04-03T05:27:03;4.40;;;3.77;;
7503;SDS011;3793;48.136;11.536;2023-04-03T05:29:40;4.93;;;3.60;;
7503;SDS011;3793;48.136;11.536;2023-04-03T05:32:11;5.70;;;3.53;;
7503;SDS011;3793;48.136;11.536;2023-04-03T05:34:38;5.50;;;3.43;;
7503;SDS011;3793;48.136;11.536;2023-04-03T05:37:14;4.87;;;3.93;;
7503;SDS011;3793;48.136;11.536;2023-04-03T05:39:48;4.63;;;3.80;;
7503;SDS011;3793;48.136;11.536;2023-04-03T05:42:32;4.60;;;3.60;;
7503;SDS011;3793;48.136;11.536;2023-04-03T05:45:00;5.53;;;4.13;;
7503;SDS011;3793;48.136;11.536;2023-04-03T05:47:34;4.97;;;3.60;;
7503;SDS011;3793;48.136;11.536;2023-04-03T05:50:06;4.37;;;3.70;;
7503;SDS011;3793;48.136;11.536;2023-04-03T05:52:35;4.37;;;3.73;;
7503;SDS011;3793;48.136;11.536;2023-04-03T05:55:10;4.70;;;3.83;;
7503;SDS011;3793;48.136;11.536;2023-04-03T05:57:44;5.83;;;4.27;;
7503;SDS011;3793;48.136;11.536;2023-04-03T06:00:14;4.77;;;3.60;;
7503;SDS011;3793;48.136;11.536;2023-04-03T06:02:55;4.50;;;4.07;;
7503;SDS011;3793;48.136;11.536;2023-04-03T06:05:41;5.67;;;3.80;;
7503;SDS011;3793;48.136;11.536;2023-04-03T06:08:32;4.73;;;4.17;;
7503;SDS011;3793;48.136;11.536;2023-04-03T06:11:02;9.40;;;3.93;;
7503;SDS011;3793;48.136;11.536;2023-04-03T06:13:31;5.00;;;4.17;;
7503;SDS011;3793;48.136;11.536;2023-04-03T06:16:11;5.93;;;3.90;;
7503;SDS011;3793;48.136;11.536;2023-04-03T06:18:40;5.20;;;3.70;;
7503;SDS011;3793;48.136;11.536;2023-04-03T06:21:10;4.43;;;3.87;;
7503;SDS011;3793;48.136;11.536;2023-04-03T06:23:37;3.97;;;3.63;;
7503;SDS011;3793;48.136;11.536;2023-04-03T06:26:15;4.87;;;3.43;;
7503;SDS011;3793;48.136;11.536;2023-04-03T06:28:47;5.13;;;4.20;;
7503;SDS011;3793;48.136;11.536;2023-04-03T06:31:14;5.87;;;3.67;;
7503;SDS011;3793;48.136;11.536;2023-04-03T06:33:44;4.73;;;3.20;;
7503;SDS011;3793;48.136;11.536;2023-04-03T06:36:17;4.43;;;3.57;;
7503;SDS011;3793;48.136;11.536;2023-04-03T06:38:46;5.70;;;3.97;;
7503;SDS011;3793;48.136;11.536;2023-04-03T06:41:21;10.03;;;4.00;;
7503;SDS011;3793;48.136;11.536;2023-04-03T06:44:09;5.50;;;4.10;;
7503;SDS011;3793;48.136;11.536;2023-04-03T06:46:59;3.77;;;3.30;;
7503;SDS011;3793;48.136;11.536;2023-04-03T06:49:33;5.43;;;4.00;;
7503;SDS011;3793;48.136;11.536;2023-04-03T06:52:02;4.83;;;3.70;;
7503;SDS011;3793;48.136;11.536;2023-04-03T06:54:29;4.43;;;3.67;;
7503;SDS011;3793;48.136;11.536;2023-04-03T06:56:59;10.07;;;4.43;;
7503;SDS011;3793;48.136;11.536;2023-04-03T07:02:10;5.47;;;4.10;;
7503;SDS011;3793;48.136;11.536;2023-04-03T07:04:40;7.83;;;4.23;;
7503;SDS011;3793;48.136;11.536;2023-04-03T07:07:10;6.63;;;4.50;;
7503;SDS011;3793;48.136;11.536;2023-04-03T07:09:46;4.93;;;3.77;;
7503;SDS011;3793;48.136;11.536;2023-04-03T07:12:22;4.63;;;3.80;;
7503;SDS011;3793;48.136;11.536;2023-04-03T07:14:51;6.20;;;3.60;;
7503;SDS011;3793;48.136;11.536;2023-04-03T07:17:23;5.07;;;3.90;;
7503;SDS011;3793;48.136;11.536;2023-04-03T07:19:55;4.90;;;3.80;;
7503;SDS011;3793;48.136;11.536;2023-04-03T07:22:31;5.10;;;3.77;;
7503;SDS011;3793;48.136;11.536;2023-04-03T07:24:58;6.37;;;3.63;;
7503;SDS011;3793;48.136;11.536;2023-04-03T07:27:26;7.10;;;4.63;;
7503;SDS011;3793;48.136;11.536;2023-04-03T07:29:57;5.60;;;4.03;;
7503;SDS011;3793;48.136;11.536;2023-04-03T07:35:20;3.97;;;3.57;;
7503;SDS011;3793;48.136;11.536;2023-04-03T07:37:50;6.10;;;4.27;;
7503;SDS011;3793;48.136;11.536;2023-04-03T07:40:18;5.03;;;4.10;;
7503;SDS011;3793;48.136;11.536;2023-04-03T07:42:48;6.70;;;4.60;;
7503;SDS011;3793;48.136;11.536;2023-04-03T07:45:20;7.83;;;4.37;;
7503;SDS011;3793;48.136;11.536;2023-04-03T07:47:51;5.73;;;4.37;;
7503;SDS011;3793;48.136;11.536;2023-04-03T07:50:18;6.07;;;4.27;;
7503;SDS011;3793;48.136;11.536;2023-04-03T07:52:54;3.90;;;3.50;;
7503;SDS011;3793;48.136;11.536;2023-04-03T07:55:31;7.20;;;4.30;;
7503;SDS011;3793;48.136;11.536;2023-04-03T08:00:47;5.53;;;4.40;;
7503;SDS011;3793;48.136;11.536;2023-04-03T08:00:58;7.47;;;4.37;;
7503;SDS011;3793;48.136;11.536;2023-04-03T08:03:32;7.50;;;4.80;;
7503;SDS011;3793;48.136;11.536;2023-04-03T08:06:06;7.70;;;5.07;;
7503;SDS011;3793;48.136;11.536;2023-04-03T08:08:40;7.60;;;4.50;;
7503;SDS011;3793;48.136;11.536;2023-04-03T08:11:12;5.27;;;4.40;;
7503;SDS011;3793;48.136;11.536;2023-04-03T08:13:44;6.80;;;4.77;;
7503;SDS011;3793;48.136;11.536;2023-04-03T08:16:20;7.97;;;4.70;;
7503;SDS011;3793;48.136;11.536;2023-04-03T08:18:49;7.73;;;4.93;;
7503;SDS011;3793;48.136;11.536;2023-04-03T08:21:16;9.30;;;4.77;;
7503;SDS011;3793;48.136;11.536;2023-04-03T08:23:42;8.97;;;5.57;;
7503;SDS011;3793;48.136;11.536;2023-04-03T08:26:10;12.77;;;4.93;;
7503;SDS011;3793;48.136;11.536;2023-04-03T08:28:36;6.83;;;5.10;;
7503;SDS011;3793;48.136;11.536;2023-04-03T08:31:04;5.40;;;4.87;;
7503;SDS011;3793;48.136;11.536;2023-04-03T08:33:32;6.90;;;5.03;;
7503;SDS011;3793;48.136;11.536;2023-04-03T08:36:00;8.10;;;5.50;;
7503;SDS011;3793;48.136;11.536;2023-04-03T08:38:27;6.87;;;5.57;;
7503;SDS011;3793;48.136;11.536;2023-04-03T08:41:00;4.80;;;4.40;;
7503;SDS011;3793;48.136;11.536;2023-04-03T08:43:30;5.90;;;4.93;;
7503;SDS011;3793;48.136;11.536;2023-04-03T08:46:01;8.97;;;5.00;;
7503;SDS011;3793;48.136;11.536;2023-04-03T08:48:29;6.87;;;5.17;;
7503;SDS011;3793;48.136;11.536;2023-04-03T08:50:57;6.43;;;4.90;;
7503;SDS011;3793;48.136;11.536;2023-04-03T08:53:27;6.77;;;4.63;;
7503;SDS011;3793;48.136;11.536;2023-04-03T08:55:57;7.00;;;4.93;;
7503;SDS011;3793;48.136;11.536;2023-04-03T08:58:25;6.47;;;4.67;;
7503;SDS011;3793;48.136;11.536;2023-04-03T09:00:53;8.30;;;4.63;;
7503;SDS011;3793;48.136;11.536;2023-04-03T09:03:22;8.40;;;5.00;;
7503;SDS011;3793;48.136;11.536;2023-04-03T09:05:50;6.93;;;5.10;;
7503;SDS011;3793;48.136;11.536;2023-04-03T09:08:23;5.60;;;4.90;;
7503;SDS011;3793;48.136;11.536;2023-04-03T09:10:55;7.47;;;4.53;;
7503;SDS011;3793;48.136;11.536;2023-04-03T09:13:26;5.10;;;4.60;;
7503;SDS011;3793;48.136;11.536;2023-04-03T09:15:55;5.80;;;4.93;;
7503;SDS011;3793;48.136;11.536;2023-04-03T09:18:23;4.43;;;4.00;;
7503;SDS011;3793;48.136;11.536;2023-04-03T09:20:56;5.60;;;4.43;;
7503;SDS011;3793;48.136;11.536;2023-04-03T09:23:24;6.90;;;4.30;;
7503;SDS011;3793;48.136;11.536;2023-04-03T09:25:56;4.87;;;4.37;;
7503;SDS011;3793;48.136;11.536;2023-04-03T09:28:27;8.13;;;4.83;;
7503;SDS011;3793;48.136;11.536;2023-04-03T09:30:54;6.63;;;4.73;;
7503;SDS011;3793;48.136;11.536;2023-04-03T09:33:20;5.87;;;4.47;;
7503;SDS011;3793;48.136;11.536;2023-04-03T09:35:47;7.20;;;4.47;;
7503;SDS011;3793;48.136;11.536;2023-04-03T09:38:16;4.63;;;4.10;;
7503;SDS011;3793;48.136;11.536;2023-04-03T09:40:43;4.97;;;4.13;;
7503;SDS011;3793;48.136;11.536;2023-04-03T09:43:20;5.23;;;3.70;;
7503;SDS011;3793;48.136;11.536;2023-04-03T09:45:47;6.80;;;3.90;;
7503;SDS011;3793;48.136;11.536;2023-04-03T09:48:16;5.00;;;4.00;;
7503;SDS011;3793;48.136;11.536;2023-04-03T09:50:53;4.97;;;3.80;;
7503;SDS011;3793;48.136;11.536;2023-04-03T09:53:27;6.87;;;4.10;;
7503;SDS011;3793;48.136;11.536;2023-04-03T09:55:54;6.53;;;4.50;;
7503;SDS011;3793;48.136;11.536;2023-04-03T09:58:26;5.30;;;4.10;;
7503;SDS011;3793;48.136;11.536;2023-04-03T10:00:54;6.53;;;4.43;;
7503;SDS011;3793;48.136;11.536;2023-04-03T10:03:23;6.00;;;3.53;;
7503;SDS011;3793;48.136;11.536;2023-04-03T10:05:51;4.77;;;3.67;;
7503;SDS011;3793;48.136;11.536;2023-04-03T10:08:21;5.27;;;4.10;;
7503;SDS011;3793;48.136;11.536;2023-04-03T10:11:04;6.03;;;3.77;;
7503;SDS011;3793;48.136;11.536;2023-04-03T10:13:33;4.50;;;3.93;;
7503;SDS011;3793;48.136;11.536;2023-04-03T10:16:01;4.43;;;4.00;;
7503;SDS011;3793;48.136;11.536;2023-04-03T10:18:31;6.30;;;4.13;;
7503;SDS011;3793;48.136;11.536;2023-04-03T10:20:59;8.90;;;4.33;;
7503;SDS011;3793;48.136;11.536;2023-04-03T10:23:30;5.70;;;3.70;;
7503;SDS011;3793;48.136;11.536;2023-04-03T10:26:02;6.70;;;4.17;;
7503;SDS011;3793;48.136;11.536;2023-04-03T10:28:35;4.53;;;4.13;;
7503;SDS011;3793;48.136;11.536;2023-04-03T10:31:03;6.57;;;4.60;;
7503;SDS011;3793;48.136;11.536;2023-04-03T10:33:39;6.87;;;4.20;;
7503;SDS011;3793;48.136;11.536;2023-04-03T10:36:09;5.33;;;4.37;;
7503;SDS011;3793;48.136;11.536;2023-04-03T10:38:39;4.90;;;4.40;;
7503;SDS011;3793;48.136;11.536;2023-04-03T10:41:10;4.87;;;4.00;;
7503;SDS011;3793;48.136;11.536;2023-04-03T10:43:42;5.27;;;4.20;;
7503;SDS011;3793;48.136;11.536;2023-04-03T10:46:10;5.00;;;4.50;;
7503;SDS011;3793;48.136;11.536;2023-04-03T10:48:48;5.90;;;3.50;;
7503;SDS011;3793;48.136;11.536;2023-04-03T10:51:31;5.27;;;3.17;;
7503;SDS011;3793;48.136;11.536;2023-04-03T10:54:04;5.53;;;3.57;;
7503;SDS011;3793;48.136;11.536;2023-04-03T10:56:34;5.17;;;3.33;;
7503;SDS011;3793;48.136;11.536;2023-04-03T10:59:08;4.90;;;3.90;;
7503;SDS011;3793;48.136;11.536;2023-04-03T11:01:40;4.43;;;3.30;;
7503;SDS011;3793;48.136;11.536;2023-04-03T11:04:07;5.90;;;3.67;;
7503;SDS011;3793;48.136;11.536;2023-04-03T11:06:36;5.63;;;4.00;;
7503;SDS011;3793;48.136;11.536;2023-04-03T11:09:05;5.50;;;4.07;;
7503;SDS011;3793;48.136;11.536;2023-04-03T11:11:34;5.87;;;3.80;;
7503;SDS011;3793;48.136;11.536;2023-04-03T11:14:02;4.77;;;3.87;;
7503;SDS011;3793;48.136;11.536;2023-04-03T11:16:31;7.03;;;4.00;;
7503;SDS011;3793;48.136;11.536;2023-04-03T11:19:01;4.37;;;3.87;;
7503;SDS011;3793;48.136;11.536;2023-04-03T11:21:31;5.23;;;3.70;;
7503;SDS011;3793;48.136;11.536;2023-04-03T11:24:00;5.67;;;3.30;;
7503;SDS011;3793;48.136;11.536;2023-04-03T11:26:29;5.03;;;3.87;;
7503;SDS011;3793;48.136;11.536;2023-04-03T11:28:58;5.17;;;3.47;;
7503;SDS011;3793;48.136;11.536;2023-04-03T11:31:33;5.13;;;3.43;;
7503;SDS011;3793;48.136;11.536;2023-04-03T11:34:05;5.33;;;3.50;;
7503;SDS011;3793;48.136;11.536;2023-04-03T11:36:34;5.63;;;3.23;;
7503;SDS011;3793;48.136;11.536;2023-04-03T11:39:07;4.53;;;3.17;;
7503;SDS011;3793;48.136;11.536;2023-04-03T11:41:36;4.97;;;3.30;;
7503;SDS011;3793;48.136;11.536;2023-04-03T11:44:03;4.73;;;2.80;;
7503;SDS011;3793;48.136;11.536;2023-04-03T11:46:51;3.73;;;2.73;;
7503;SDS011;3793;48.136;11.536;2023-04-03T11:52:03;3.73;;;2.70;;
7503;SDS011;3793;48.136;11.536;2023-04-03T11:54:46;4.70;;;2.80;;
7503;SDS011;3793;48.136;11.536;2023-04-03T12:02:56;4.47;;;2.40;;
7503;SDS011;3793;48.136;11.536;2023-04-03T12:05:26;9.67;;;2.80;;
7503;SDS011;3793;48.136;11.536;2023-04-03T12:10:34;6.93;;;2.60;;
7503;SDS011;3793;48.136;11.536;2023-04-03T12:13:11;3.43;;;2.20;;
7503;SDS011;3793;48.136;11.536;2023-04-03T12:15:50;3.83;;;2.40;;
7503;SDS011;3793;48.136;11.536;2023-04-03T12:21:09;6.03;;;2.33;;
7503;SDS011;3793;48.136;11.536;2023-04-03T12:23:36;4.10;;;2.33;;
7503;SDS011;3793;48.136;11.536;2023-04-03T12:26:18;4.17;;;2.20;;
7503;SDS011;3793;48.136;11.536;2023-04-03T12:28:46;3.20;;;2.03;;
7503;SDS011;3793;48.136;11.536;2023-04-03T12:31:14;4.00;;;2.23;;
7503;SDS011;3793;48.136;11.536;2023-04-03T12:33:46;4.20;;;1.87;;
7503;SDS011;3793;48.136;11.536;2023-04-03T12:36:25;3.93;;;2.27;;
7503;SDS011;3793;48.136;11.536;2023-04-03T12:39:01;3.20;;;2.27;;
7503;SDS011;3793;48.136;11.536;2023-04-03T12:41:32;3.30;;;2.33;;
7503;SDS011;3793;48.136;11.536;2023-04-03T12:44:09;3.40;;;1.90;;
7503;SDS011;3793;48.136;11.536;2023-04-03T12:46:39;3.13;;;2.10;;
7503;SDS011;3793;48.136;11.536;2023-04-03T12:49:14;3.97;;;2.30;;
7503;SDS011;3793;48.136;11.536;2023-04-03T12:51:45;3.93;;;2.70;;
7503;SDS011;3793;48.136;11.536;2023-04-03T12:54:13;3.63;;;2.20;;
7503;SDS011;3793;48.136;11.536;2023-04-03T12:56:41;4.43;;;2.30;;
7503;SDS011;3793;48.136;11.536;2023-04-03T12:59:15;3.67;;;2.53;;
7503;SDS011;3793;48.136;11.536;2023-04-03T13:01:43;3.47;;;2.40;;
7503;SDS011;3793;48.136;11.536;2023-04-03T13:04:10;3.00;;;1.93;;
7503;SDS011;3793;48.136;11.536;2023-04-03T13:06:38;6.00;;;2.20;;
7503;SDS011;3793;48.136;11.536;2023-04-03T13:09:16;3.50;;;2.20;;
7503;SDS011;3793;48.136;11.536;2023-04-03T13:11:44;2.60;;;2.20;;
7503;SDS011;3793;48.136;11.536;2023-04-03T13:14:14;3.07;;;2.43;;
7503;SDS011;3793;48.136;11.536;2023-04-03T13:16:41;3.70;;;2.33;;
7503;SDS011;3793;48.136;11.536;2023-04-03T13:19:14;3.37;;;1.83;;
7503;SDS011;3793;48.136;11.536;2023-04-03T13:21:42;3.47;;;2.10;;
7503;SDS011;3793;48.136;11.536;2023-04-03T13:24:10;4.37;;;2.33;;
7503;SDS011;3793;48.136;11.536;2023-04-03T13:26:38;4.50;;;2.30;;
7503;SDS011;3793;48.136;11.536;2023-04-03T13:29:06;1.80;;;1.70;;
7503;SDS011;3793;48.136;11.536;2023-04-03T13:31:36;2.70;;;2.10;;
7503;SDS011;3793;48.136;11.536;2023-04-03T13:34:06;3.53;;;2.13;;
7503;SDS011;3793;48.136;11.536;2023-04-03T13:36:34;2.17;;;1.97;;
7503;SDS011;3793;48.136;11.536;2023-04-03T13:39:02;2.63;;;1.90;;
7503;SDS011;3793;48.136;11.536;2023-04-03T13:41:32;2.90;;;1.90;;
7503;SDS011;3793;48.136;11.536;2023-04-03T13:46:40;2.80;;;1.80;;
7503;SDS011;3793;48.136;11.536;2023-04-03T13:49:17;4.67;;;2.00;;
7503;SDS011;3793;48.136;11.536;2023-04-03T13:51:43;4.33;;;1.80;;
7503;SDS011;3793;48.136;11.536;2023-04-03T13:54:16;4.33;;;1.83;;
7503;SDS011;3793;48.136;11.536;2023-04-03T13:56:45;3.53;;;2.40;;
7503;SDS011;3793;48.136;11.536;2023-04-03T13:59:22;6.17;;;2.00;;
7503;SDS011;3793;48.136;11.536;2023-04-03T14:01:50;3.83;;;2.00;;
7503;SDS011;3793;48.136;11.536;2023-04-03T14:04:19;4.60;;;2.90;;
7503;SDS011;3793;48.136;11.536;2023-04-03T14:06:47;3.23;;;2.30;;
7503;SDS011;3793;48.136;11.536;2023-04-03T14:09:14;2.57;;;1.97;;
7503;SDS011;3793;48.136;11.536;2023-04-03T14:11:41;2.60;;;2.00;;
7503;SDS011;3793;48.136;11.536;2023-04-03T14:14:11;3.00;;;1.73;;
7503;SDS011;3793;48.136;11.536;2023-04-03T14:16:40;2.00;;;1.80;;
7503;SDS011;3793;48.136;11.536;2023-04-03T14:19:09;2.67;;;1.97;;
7503;SDS011;3793;48.136;11.536;2023-04-03T14:21:41;3.30;;;1.80;;
7503;SDS011;3793;48.136;11.536;2023-04-03T14:24:08;2.80;;;2.20;;
7503;SDS011;3793;48.136;11.536;2023-04-03T14:26:36;3.23;;;2.33;;
7503;SDS011;3793;48.136;11.536;2023-04-03T14:29:03;4.37;;;2.70;;
7503;SDS011;3793;48.136;11.536;2023-04-03T14:31:31;5.83;;;2.30;;
7503;SDS011;3793;48.136;11.536;2023-04-03T14:33:58;3.50;;;2.20;;
7503;SDS011;3793;48.136;11.536;2023-04-03T14:36:24;3.20;;;1.93;;
7503;SDS011;3793;48.136;11.536;2023-04-03T14:38:52;5.70;;;1.83;;
7503;SDS011;3793;48.136;11.536;2023-04-03T14:41:20;2.90;;;1.77;;
7503;SDS011;3793;48.136;11.536;2023-04-03T14:43:47;4.07;;;2.00;;
7503;SDS011;3793;48.136;11.536;2023-04-03T14:46:14;3.67;;;1.60;;
7503;SDS011;3793;48.136;11.536;2023-04-03T14:48:43;2.30;;;1.60;;
7503;SDS011;3793;48.136;11.536;2023-04-03T14:51:10;3.87;;;1.70;;
7503;SDS011;3793;48.136;11.536;2023-04-03T14:53:38;2.40;;;1.70;;
7503;SDS011;3793;48.136;11.536;2023-04-03T14:56:10;3.47;;;1.70;;
7503;SDS011;3793;48.136;11.536;2023-04-03T14:58:37;1.83;;;1.53;;
7503;SDS011;3793;48.136;11.536;2023-04-03T15:01:03;5.50;;;2.13;;
7503;SDS011;3793;48.136;11.536;2023-04-03T15:03:30;2.50;;;1.80;;
7503;SDS011;3793;48.136;11.536;2023-04-03T15:05:58;3.17;;;1.53;;
7503;SDS011;3793;48.136;11.536;2023-04-03T15:08:25;3.33;;;1.80;;
7503;SDS011;3793;48.136;11.536;2023-04-03T15:10:54;3.17;;;2.00;;
7503;SDS011;3793;48.136;11.536;2023-04-03T15:13:21;1.90;;;1.70;;
7503;SDS011;3793;48.136;11.536;2023-04-03T15:15:48;3.60;;;1.90;;
7503;SDS011;3793;48.136;11.536;2023-04-03T15:18:16;2.47;;;1.50;;
7503;SDS011;3793;48.136;11.536;2023-04-03T15:20:44;2.90;;;1.77;;
7503;SDS011;3793;48.136;11.536;2023-04-03T15:23:13;2.63;;;1.80;;
7503;SDS011;3793;48.136;11.536;2023-04-03T15:25:40;3.13;;;2.00;;
7503;SDS011;3793;48.136;11.536;2023-04-03T15:28:08;1.70;;;1.60;;
7503;SDS011;3793;48.136;11.536;2023-04-03T15:30:36;1.67;;;1.57;;
7503;SDS011;3793;48.136;11.536;2023-04-03T15:33:03;3.63;;;1.97;;
7503;SDS011;3793;48.136;11.536;2023-04-03T15:35:29;4.20;;;1.97;;
7503;SDS011;3793;48.136;11.536;2023-04-03T15:37:56;3.13;;;2.03;;
7503;SDS011;3793;48.136;11.536;2023-04-03T15:40:24;3.07;;;2.00;;
7503;SDS011;3793;48.136;11.536;2023-04-03T15:42:50;3.47;;;1.80;;
7503;SDS011;3793;48.136;11.536;2023-04-03T15:45:17;1.97;;;1.63;;
7503;SDS011;3793;48.136;11.536;2023-04-03T15:47:44;1.60;;;1.50;;
7503;SDS011;3793;48.136;11.536;2023-04-03T15:50:10;2.13;;;1.70;;
7503;SDS011;3793;48.136;11.536;2023-04-03T15:52:37;2.50;;;1.97;;